Aviation Digital Data Service (ADDS)

Output produced by METARs form (2301 UTC 30 November 2022)
found at http://aviationweather.gov/metar/data/
 
KTUS 301720Z 3018/0118 19009KT P6SM BKN200 
     FM302200 29009KT P6SM SCT200 
     FM010300 14007KT P6SM SCT250